sensor_id;sensor_type;location;lat;lon;timestamp;pressure;altitude;pressure_sealevel;temperature;humidity
3812;BME280;1921;49.368;11.068;2023-07-29T00:02:01;97240.97;;;18.47;100.00
3812;BME280;1921;49.368;11.068;2023-07-29T00:04:28;97265.72;;;18.58;100.00
3812;BME280;1921;49.368;11.068;2023-07-29T00:06:53;97266.03;;;18.62;100.00
3812;BME280;1921;49.368;11.068;2023-07-29T00:09:19;97251.38;;;18.54;100.00
3812;BME280;1921;49.368;11.068;2023-07-29T00:11:45;97240.72;;;18.49;100.00
3812;BME280;1921;49.368;11.068;2023-07-29T00:14:10;97236.56;;;18.53;100.00
3812;BME280;1921;49.368;11.068;2023-07-29T00:16:36;97274.03;;;18.78;100.00
3812;BME280;1921;49.368;11.068;2023-07-29T00:19:02;97227.59;;;18.54;100.00
3812;BME280;1921;49.368;11.068;2023-07-29T00:21:28;97247.78;;;18.60;100.00
3812;BME280;1921;49.368;11.068;2023-07-29T00:23:54;97253.75;;;18.67;100.00
3812;BME280;1921;49.368;11.068;2023-07-29T00:26:23;97216.16;;;18.48;100.00
3812;BME280;1921;49.368;11.068;2023-07-29T00:28:51;97201.94;;;18.38;100.00
3812;BME280;1921;49.368;11.068;2023-07-29T00:31:17;97230.25;;;18.54;100.00
3812;BME280;1921;49.368;11.068;2023-07-29T00:33:43;97238.69;;;18.68;100.00
3812;BME280;1921;49.368;11.068;2023-07-29T00:36:08;97217.66;;;18.44;100.00
3812;BME280;1921;49.368;11.068;2023-07-29T00:38:34;97210.13;;;18.36;100.00
3812;BME280;1921;49.368;11.068;2023-07-29T00:41:02;97232.88;;;18.54;100.00
3812;BME280;1921;49.368;11.068;2023-07-29T00:43:29;97210.66;;;18.38;100.00
3812;BME280;1921;49.368;11.068;2023-07-29T00:45:55;97254.66;;;18.61;100.00
3812;BME280;1921;49.368;11.068;2023-07-29T00:48:23;97199.94;;;18.28;100.00
3812;BME280;1921;49.368;11.068;2023-07-29T00:50:49;97212.91;;;18.29;100.00
3812;BME280;1921;49.368;11.068;2023-07-29T00:53:15;97240.06;;;18.42;100.00
3812;BME280;1921;49.368;11.068;2023-07-29T00:55:41;97259.19;;;18.49;100.00
3812;BME280;1921;49.368;11.068;2023-07-29T00:58:07;97240.19;;;18.35;100.00
3812;BME280;1921;49.368;11.068;2023-07-29T01:00:33;97228.31;;;18.21;100.00
3812;BME280;1921;49.368;11.068;2023-07-29T01:02:59;97235.19;;;18.22;100.00
3812;BME280;1921;49.368;11.068;2023-07-29T01:05:30;97252.34;;;18.36;100.00
3812;BME280;1921;49.368;11.068;2023-07-29T01:08:33;97216.41;;;18.07;100.00
3812;BME280;1921;49.368;11.068;2023-07-29T01:11:18;97254.13;;;18.19;100.00
3812;BME280;1921;49.368;11.068;2023-07-29T01:14:26;97228.72;;;18.01;100.00
3812;BME280;1921;49.368;11.068;2023-07-29T01:17:07;97221.97;;;17.93;100.00
3812;BME280;1921;49.368;11.068;2023-07-29T01:22:16;97252.47;;;18.01;100.00
3812;BME280;1921;49.368;11.068;2023-07-29T01:24:42;97247.91;;;17.96;100.00
3812;BME280;1921;49.368;11.068;2023-07-29T01:27:07;97229.91;;;17.82;100.00
3812;BME280;1921;49.368;11.068;2023-07-29T01:29:33;97217.44;;;17.77;100.00
3812;BME280;1921;49.368;11.068;2023-07-29T01:32:08;97230.00;;;17.87;100.00
3812;BME280;1921;49.368;11.068;2023-07-29T01:35:10;97258.56;;;18.01;100.00
3812;BME280;1921;49.368;11.068;2023-07-29T01:37:39;97244.72;;;17.83;100.00
3812;BME280;1921;49.368;11.068;2023-07-29T01:40:08;97234.84;;;17.78;100.00
3812;BME280;1921;49.368;11.068;2023-07-29T01:42:34;97259.03;;;17.87;100.00
3812;BME280;1921;49.368;11.068;2023-07-29T01:45:00;97250.94;;;17.77;100.00
3812;BME280;1921;49.368;11.068;2023-07-29T01:47:26;97242.28;;;17.69;100.00
3812;BME280;1921;49.368;11.068;2023-07-29T01:49:52;97234.28;;;17.64;100.00
3812;BME280;1921;49.368;11.068;2023-07-29T01:52:17;97224.41;;;17.60;100.00
3812;BME280;1921;49.368;11.068;2023-07-29T01:54:43;97212.97;;;17.54;100.00
3812;BME280;1921;49.368;11.068;2023-07-29T01:57:09;97208.13;;;17.51;100.00
3812;BME280;1921;49.368;11.068;2023-07-29T01:59:35;97213.41;;;17.51;100.00
3812;BME280;1921;49.368;11.068;2023-07-29T02:02:00;97240.59;;;17.75;100.00
3812;BME280;1921;49.368;11.068;2023-07-29T02:04:26;97163.91;;;17.30;100.00
3812;BME280;1921;49.368;11.068;2023-07-29T02:06:52;97218.66;;;17.63;100.00
3812;BME280;1921;49.368;11.068;2023-07-29T02:09:18;97226.94;;;17.66;100.00
3812;BME280;1921;49.368;11.068;2023-07-29T02:11:43;97204.38;;;17.47;100.00
3812;BME280;1921;49.368;11.068;2023-07-29T02:14:09;97191.88;;;17.42;100.00
3812;BME280;1921;49.368;11.068;2023-07-29T02:16:35;97207.91;;;17.53;100.00
3812;BME280;1921;49.368;11.068;2023-07-29T02:19:01;97193.94;;;17.52;100.00
3812;BME280;1921;49.368;11.068;2023-07-29T02:21:27;97177.91;;;17.42;100.00
3812;BME280;1921;49.368;11.068;2023-07-29T02:23:53;97168.72;;;17.33;100.00
3812;BME280;1921;49.368;11.068;2023-07-29T02:26:18;97202.41;;;17.54;100.00
3812;BME280;1921;49.368;11.068;2023-07-29T02:28:44;97172.50;;;17.37;100.00
3812;BME280;1921;49.368;11.068;2023-07-29T02:31:20;97171.34;;;17.44;100.00
3812;BME280;1921;49.368;11.068;2023-07-29T02:33:46;97162.44;;;17.34;100.00
3812;BME280;1921;49.368;11.068;2023-07-29T02:36:13;97181.09;;;17.44;100.00
3812;BME280;1921;49.368;11.068;2023-07-29T02:38:40;97165.75;;;17.29;100.00
3812;BME280;1921;49.368;11.068;2023-07-29T02:41:07;97147.88;;;17.19;100.00
3812;BME280;1921;49.368;11.068;2023-07-29T02:43:35;97154.53;;;17.22;100.00
3812;BME280;1921;49.368;11.068;2023-07-29T02:46:02;97146.28;;;17.18;100.00
3812;BME280;1921;49.368;11.068;2023-07-29T02:48:28;97139.97;;;17.08;100.00
3812;BME280;1921;49.368;11.068;2023-07-29T02:50:55;97154.66;;;17.15;100.00
3812;BME280;1921;49.368;11.068;2023-07-29T02:53:22;97188.22;;;17.32;100.00
3812;BME280;1921;49.368;11.068;2023-07-29T02:55:48;97163.00;;;17.24;100.00
3812;BME280;1921;49.368;11.068;2023-07-29T02:58:14;97177.66;;;17.32;100.00
3812;BME280;1921;49.368;11.068;2023-07-29T03:00:40;97118.00;;;16.90;100.00
3812;BME280;1921;49.368;11.068;2023-07-29T03:03:09;97171.81;;;17.30;100.00
3812;BME280;1921;49.368;11.068;2023-07-29T03:05:35;97176.53;;;17.28;100.00
3812;BME280;1921;49.368;11.068;2023-07-29T03:08:01;97203.69;;;17.40;100.00
3812;BME280;1921;49.368;11.068;2023-07-29T03:10:27;97162.44;;;17.10;100.00
3812;BME280;1921;49.368;11.068;2023-07-29T03:12:56;97146.41;;;17.00;100.00
3812;BME280;1921;49.368;11.068;2023-07-29T03:15:25;97141.38;;;17.10;100.00
3812;BME280;1921;49.368;11.068;2023-07-29T03:17:52;97193.84;;;17.35;100.00
3812;BME280;1921;49.368;11.068;2023-07-29T03:20:19;97207.00;;;17.35;100.00
3812;BME280;1921;49.368;11.068;2023-07-29T03:22:45;97153.75;;;17.10;100.00
3812;BME280;1921;49.368;11.068;2023-07-29T03:25:11;97167.38;;;17.07;100.00
3812;BME280;1921;49.368;11.068;2023-07-29T03:27:37;97211.81;;;17.38;100.00
3812;BME280;1921;49.368;11.068;2023-07-29T03:30:04;97169.06;;;17.13;100.00
3812;BME280;1921;49.368;11.068;2023-07-29T03:32:29;97152.16;;;17.20;100.00
3812;BME280;1921;49.368;11.068;2023-07-29T03:34:55;97160.94;;;17.26;100.00
3812;BME280;1921;49.368;11.068;2023-07-29T03:37:21;97185.00;;;17.41;100.00
3812;BME280;1921;49.368;11.068;2023-07-29T03:39:47;97161.84;;;17.32;100.00
3812;BME280;1921;49.368;11.068;2023-07-29T03:42:13;97168.28;;;17.36;100.00
3812;BME280;1921;49.368;11.068;2023-07-29T03:44:39;97202.50;;;17.71;100.00
3812;BME280;1921;49.368;11.068;2023-07-29T03:47:06;97167.09;;;17.55;100.00
3812;BME280;1921;49.368;11.068;2023-07-29T03:49:32;97158.63;;;17.53;100.00
3812;BME280;1921;49.368;11.068;2023-07-29T03:51:58;97160.66;;;17.63;100.00
3812;BME280;1921;49.368;11.068;2023-07-29T03:54:23;97163.88;;;17.65;100.00
3812;BME280;1921;49.368;11.068;2023-07-29T03:56:49;97158.69;;;17.70;100.00
3812;BME280;1921;49.368;11.068;2023-07-29T03:59:15;97159.97;;;17.79;100.00
3812;BME280;1921;49.368;11.068;2023-07-29T04:01:41;97199.31;;;18.09;100.00
3812;BME280;1921;49.368;11.068;2023-07-29T04:04:07;97143.44;;;17.84;100.00
3812;BME280;1921;49.368;11.068;2023-07-29T04:06:32;97142.50;;;17.90;100.00
3812;BME280;1921;49.368;11.068;2023-07-29T04:08:58;97113.28;;;17.80;100.00
3812;BME280;1921;49.368;11.068;2023-07-29T04:11:24;97142.72;;;18.17;100.00
3812;BME280;1921;49.368;11.068;2023-07-29T04:13:50;97156.63;;;18.58;100.00
3812;BME280;1921;49.368;11.068;2023-07-29T04:16:15;97123.91;;;18.75;100.00
3812;BME280;1921;49.368;11.068;2023-07-29T04:18:42;97150.22;;;19.21;100.00
3812;BME280;1921;49.368;11.068;2023-07-29T04:21:08;97122.69;;;19.39;100.00
3812;BME280;1921;49.368;11.068;2023-07-29T04:23:34;97116.97;;;19.69;100.00
3812;BME280;1921;49.368;11.068;2023-07-29T04:26:00;97173.81;;;20.37;100.00
3812;BME280;1921;49.368;11.068;2023-07-29T04:28:26;97126.53;;;20.46;100.00
3812;BME280;1921;49.368;11.068;2023-07-29T04:30:52;97146.47;;;20.90;100.00
3812;BME280;1921;49.368;11.068;2023-07-29T04:33:18;97124.13;;;21.18;100.00
3812;BME280;1921;49.368;11.068;2023-07-29T04:35:43;97148.75;;;21.61;100.00
3812;BME280;1921;49.368;11.068;2023-07-29T04:38:09;97162.19;;;22.07;100.00
3812;BME280;1921;49.368;11.068;2023-07-29T04:40:35;97129.03;;;22.10;88.08
3812;BME280;1921;49.368;11.068;2023-07-29T04:43:01;97149.00;;;22.38;92.31
3812;BME280;1921;49.368;11.068;2023-07-29T04:45:30;97109.16;;;22.38;88.22
3812;BME280;1921;49.368;11.068;2023-07-29T04:47:57;97153.81;;;23.07;86.93
3812;BME280;1921;49.368;11.068;2023-07-29T04:50:23;97103.81;;;22.99;83.98
3812;BME280;1921;49.368;11.068;2023-07-29T04:52:49;97122.03;;;23.41;80.56
3812;BME280;1921;49.368;11.068;2023-07-29T04:55:15;97154.19;;;23.70;79.66
3812;BME280;1921;49.368;11.068;2023-07-29T04:57:41;97158.00;;;24.08;78.23
3812;BME280;1921;49.368;11.068;2023-07-29T05:00:07;97123.00;;;24.25;75.89
3812;BME280;1921;49.368;11.068;2023-07-29T05:02:33;97099.56;;;24.22;75.68
3812;BME280;1921;49.368;11.068;2023-07-29T05:04:58;97105.28;;;24.05;74.22
3812;BME280;1921;49.368;11.068;2023-07-29T05:07:24;97113.16;;;23.76;76.47
3812;BME280;1921;49.368;11.068;2023-07-29T05:09:50;97133.50;;;23.42;77.72
3812;BME280;1921;49.368;11.068;2023-07-29T05:12:16;97088.66;;;22.79;79.30
3812;BME280;1921;49.368;11.068;2023-07-29T05:14:41;97114.19;;;22.39;81.49
3812;BME280;1921;49.368;11.068;2023-07-29T05:17:07;97110.19;;;22.11;82.76
3812;BME280;1921;49.368;11.068;2023-07-29T05:19:33;97097.38;;;21.93;83.56
3812;BME280;1921;49.368;11.068;2023-07-29T05:21:58;97082.94;;;21.58;84.54
3812;BME280;1921;49.368;11.068;2023-07-29T05:24:24;97111.31;;;21.53;85.54
3812;BME280;1921;49.368;11.068;2023-07-29T05:26:50;97121.16;;;21.57;86.61
3812;BME280;1921;49.368;11.068;2023-07-29T05:29:15;97126.16;;;21.54;86.99
3812;BME280;1921;49.368;11.068;2023-07-29T05:31:41;97131.72;;;21.47;87.92
3812;BME280;1921;49.368;11.068;2023-07-29T05:34:07;97107.78;;;21.32;87.72
3812;BME280;1921;49.368;11.068;2023-07-29T05:36:33;97147.94;;;21.56;88.25
3812;BME280;1921;49.368;11.068;2023-07-29T05:38:58;97068.00;;;20.89;88.47
3812;BME280;1921;49.368;11.068;2023-07-29T05:41:24;97113.78;;;21.22;88.90
3812;BME280;1921;49.368;11.068;2023-07-29T05:43:53;97117.53;;;21.26;89.66
3812;BME280;1921;49.368;11.068;2023-07-29T05:46:18;97107.63;;;21.11;88.97
3812;BME280;1921;49.368;11.068;2023-07-29T05:48:44;97124.09;;;21.13;89.91
3812;BME280;1921;49.368;11.068;2023-07-29T05:51:10;97125.56;;;20.99;91.46
3812;BME280;1921;49.368;11.068;2023-07-29T05:53:35;97115.47;;;20.91;91.43
3812;BME280;1921;49.368;11.068;2023-07-29T05:56:01;97140.03;;;21.18;90.90
3812;BME280;1921;49.368;11.068;2023-07-29T05:58:27;97107.84;;;21.05;91.27
3812;BME280;1921;49.368;11.068;2023-07-29T06:00:53;97147.56;;;21.32;90.09
3812;BME280;1921;49.368;11.068;2023-07-29T06:03:18;97126.75;;;21.13;90.64
3812;BME280;1921;49.368;11.068;2023-07-29T06:05:44;97130.47;;;21.12;90.19
3812;BME280;1921;49.368;11.068;2023-07-29T06:08:10;97142.09;;;21.06;91.20
3812;BME280;1921;49.368;11.068;2023-07-29T06:10:35;97140.91;;;20.87;92.12
3812;BME280;1921;49.368;11.068;2023-07-29T06:13:01;97162.38;;;20.90;92.62
3812;BME280;1921;49.368;11.068;2023-07-29T06:15:27;97117.63;;;20.62;92.69
3812;BME280;1921;49.368;11.068;2023-07-29T06:17:53;97142.31;;;20.67;93.50
3812;BME280;1921;49.368;11.068;2023-07-29T06:20:19;97147.13;;;20.70;94.06
3812;BME280;1921;49.368;11.068;2023-07-29T06:22:44;97135.38;;;20.56;94.85
3812;BME280;1921;49.368;11.068;2023-07-29T06:25:10;97167.78;;;20.68;95.74
3812;BME280;1921;49.368;11.068;2023-07-29T06:27:36;97163.88;;;20.49;96.91
3812;BME280;1921;49.368;11.068;2023-07-29T06:30:02;97136.91;;;20.25;97.36
3812;BME280;1921;49.368;11.068;2023-07-29T06:32:27;97145.53;;;20.15;98.77
3812;BME280;1921;49.368;11.068;2023-07-29T06:34:53;97125.56;;;19.81;100.00
3812;BME280;1921;49.368;11.068;2023-07-29T06:37:21;97131.38;;;19.78;100.00
3812;BME280;1921;49.368;11.068;2023-07-29T06:39:47;97180.16;;;19.87;100.00
3812;BME280;1921;49.368;11.068;2023-07-29T06:42:13;97189.06;;;19.76;100.00
3812;BME280;1921;49.368;11.068;2023-07-29T06:44:39;97172.66;;;19.57;100.00
3812;BME280;1921;49.368;11.068;2023-07-29T06:47:05;97213.34;;;19.56;100.00
3812;BME280;1921;49.368;11.068;2023-07-29T06:49:31;97145.00;;;19.26;100.00
3812;BME280;1921;49.368;11.068;2023-07-29T06:51:57;97142.81;;;19.01;100.00
3812;BME280;1921;49.368;11.068;2023-07-29T06:54:26;97162.25;;;18.95;100.00
3812;BME280;1921;49.368;11.068;2023-07-29T06:56:52;97132.00;;;18.86;100.00
3812;BME280;1921;49.368;11.068;2023-07-29T06:59:18;97144.63;;;19.00;100.00
3812;BME280;1921;49.368;11.068;2023-07-29T07:01:44;97188.47;;;19.35;100.00
3812;BME280;1921;49.368;11.068;2023-07-29T07:04:09;97156.38;;;19.26;100.00
3812;BME280;1921;49.368;11.068;2023-07-29T07:06:35;97068.03;;;18.67;100.00
3812;BME280;1921;49.368;11.068;2023-07-29T07:09:01;97144.44;;;19.24;100.00
3812;BME280;1921;49.368;11.068;2023-07-29T07:11:26;97150.16;;;19.37;100.00
3812;BME280;1921;49.368;11.068;2023-07-29T07:13:52;97153.25;;;19.51;100.00
3812;BME280;1921;49.368;11.068;2023-07-29T07:16:18;97183.44;;;19.94;100.00
3812;BME280;1921;49.368;11.068;2023-07-29T07:18:44;97148.47;;;19.92;100.00
3812;BME280;1921;49.368;11.068;2023-07-29T07:21:09;97173.72;;;20.27;100.00
3812;BME280;1921;49.368;11.068;2023-07-29T07:23:35;97170.56;;;20.30;100.00
3812;BME280;1921;49.368;11.068;2023-07-29T07:26:02;97129.66;;;20.15;100.00
3812;BME280;1921;49.368;11.068;2023-07-29T07:28:28;97122.25;;;20.17;100.00
3812;BME280;1921;49.368;11.068;2023-07-29T07:30:53;97164.50;;;20.56;100.00
3812;BME280;1921;49.368;11.068;2023-07-29T07:33:22;97095.44;;;20.41;100.00
3812;BME280;1921;49.368;11.068;2023-07-29T07:35:47;97128.34;;;20.77;100.00
3812;BME280;1921;49.368;11.068;2023-07-29T07:38:13;97129.28;;;20.98;100.00
3812;BME280;1921;49.368;11.068;2023-07-29T07:40:40;97148.53;;;21.20;100.00
3812;BME280;1921;49.368;11.068;2023-07-29T07:43:06;97133.97;;;21.28;100.00
3812;BME280;1921;49.368;11.068;2023-07-29T07:45:36;97136.00;;;21.58;100.00
3812;BME280;1921;49.368;11.068;2023-07-29T07:48:01;97101.13;;;21.29;100.00
3812;BME280;1921;49.368;11.068;2023-07-29T07:50:29;97129.94;;;21.63;100.00
3812;BME280;1921;49.368;11.068;2023-07-29T07:52:55;97143.22;;;21.68;100.00
3812;BME280;1921;49.368;11.068;2023-07-29T07:55:21;97148.06;;;21.81;100.00
3812;BME280;1921;49.368;11.068;2023-07-29T07:57:47;97120.34;;;21.57;100.00
3812;BME280;1921;49.368;11.068;2023-07-29T08:00:13;97098.84;;;21.53;100.00
3812;BME280;1921;49.368;11.068;2023-07-29T08:02:41;97146.50;;;21.95;100.00
3812;BME280;1921;49.368;11.068;2023-07-29T08:05:07;97109.50;;;21.73;100.00
3812;BME280;1921;49.368;11.068;2023-07-29T08:07:33;97131.56;;;21.79;99.86
3812;BME280;1921;49.368;11.068;2023-07-29T08:09:58;97114.78;;;21.58;99.30
3812;BME280;1921;49.368;11.068;2023-07-29T08:12:24;97099.75;;;21.27;100.00
3812;BME280;1921;49.368;11.068;2023-07-29T08:14:50;97109.22;;;21.07;100.00
3812;BME280;1921;49.368;11.068;2023-07-29T08:17:15;97132.19;;;21.34;100.00
3812;BME280;1921;49.368;11.068;2023-07-29T08:19:41;97130.34;;;21.39;100.00
3812;BME280;1921;49.368;11.068;2023-07-29T08:22:07;97168.63;;;21.54;99.89
3812;BME280;1921;49.368;11.068;2023-07-29T08:24:32;97128.06;;;21.16;100.00
3812;BME280;1921;49.368;11.068;2023-07-29T08:26:59;97133.78;;;20.97;100.00
3812;BME280;1921;49.368;11.068;2023-07-29T08:29:25;97154.66;;;20.84;100.00
3812;BME280;1921;49.368;11.068;2023-07-29T08:31:51;97129.00;;;20.57;100.00
3812;BME280;1921;49.368;11.068;2023-07-29T08:34:18;97124.34;;;20.42;100.00
3812;BME280;1921;49.368;11.068;2023-07-29T08:36:44;97132.09;;;20.49;100.00
3812;BME280;1921;49.368;11.068;2023-07-29T08:39:09;97121.53;;;19.95;100.00
3812;BME280;1921;49.368;11.068;2023-07-29T08:41:46;97125.63;;;19.86;100.00
3812;BME280;1921;49.368;11.068;2023-07-29T08:44:23;97148.06;;;20.05;100.00
3812;BME280;1921;49.368;11.068;2023-07-29T08:46:50;97159.88;;;20.20;100.00
3812;BME280;1921;49.368;11.068;2023-07-29T08:49:18;97144.75;;;20.15;100.00
3812;BME280;1921;49.368;11.068;2023-07-29T08:51:48;97143.00;;;20.26;100.00
3812;BME280;1921;49.368;11.068;2023-07-29T08:54:15;97168.97;;;20.51;100.00
3812;BME280;1921;49.368;11.068;2023-07-29T08:56:41;97141.75;;;20.33;100.00
3812;BME280;1921;49.368;11.068;2023-07-29T08:59:09;97163.41;;;20.52;100.00
3812;BME280;1921;49.368;11.068;2023-07-29T09:01:38;97176.34;;;20.49;100.00
3812;BME280;1921;49.368;11.068;2023-07-29T09:04:04;97138.78;;;20.30;100.00
3812;BME280;1921;49.368;11.068;2023-07-29T09:06:31;97114.41;;;20.28;100.00
3812;BME280;1921;49.368;11.068;2023-07-29T09:08:58;97123.31;;;20.43;100.00
3812;BME280;1921;49.368;11.068;2023-07-29T09:11:25;97138.44;;;20.48;100.00
3812;BME280;1921;49.368;11.068;2023-07-29T09:13:51;97147.28;;;20.59;100.00
3812;BME280;1921;49.368;11.068;2023-07-29T09:16:18;97118.25;;;20.42;100.00
3812;BME280;1921;49.368;11.068;2023-07-29T09:18:51;97142.00;;;20.59;100.00
3812;BME280;1921;49.368;11.068;2023-07-29T09:21:22;97149.25;;;20.74;100.00
3812;BME280;1921;49.368;11.068;2023-07-29T09:23:50;97141.00;;;20.65;100.00
3812;BME280;1921;49.368;11.068;2023-07-29T09:26:27;97176.66;;;20.84;100.00
3812;BME280;1921;49.368;11.068;2023-07-29T09:28:55;97093.19;;;20.23;100.00
3812;BME280;1921;49.368;11.068;2023-07-29T09:31:24;97147.38;;;20.42;100.00
3812;BME280;1921;49.368;11.068;2023-07-29T09:33:53;97173.88;;;20.42;100.00
3812;BME280;1921;49.368;11.068;2023-07-29T09:36:21;97210.09;;;20.58;100.00
3812;BME280;1921;49.368;11.068;2023-07-29T09:38:47;97160.53;;;20.32;100.00
3812;BME280;1921;49.368;11.068;2023-07-29T09:41:15;97184.41;;;20.37;100.00
3812;BME280;1921;49.368;11.068;2023-07-29T09:43:41;97164.69;;;20.23;100.00
3812;BME280;1921;49.368;11.068;2023-07-29T09:46:07;97141.03;;;20.16;100.00
3812;BME280;1921;49.368;11.068;2023-07-29T09:48:37;97181.47;;;20.60;100.00
3812;BME280;1921;49.368;11.068;2023-07-29T09:51:14;97148.41;;;20.68;100.00
3812;BME280;1921;49.368;11.068;2023-07-29T09:53:46;97155.09;;;21.08;100.00
3812;BME280;1921;49.368;11.068;2023-07-29T09:56:13;97174.25;;;21.62;100.00
3812;BME280;1921;49.368;11.068;2023-07-29T09:58:39;97159.19;;;21.78;100.00
3812;BME280;1921;49.368;11.068;2023-07-29T10:01:06;97168.09;;;22.19;100.00
3812;BME280;1921;49.368;11.068;2023-07-29T10:03:34;97170.00;;;22.44;100.00
3812;BME280;1921;49.368;11.068;2023-07-29T10:06:04;97166.81;;;22.83;100.00
3812;BME280;1921;49.368;11.068;2023-07-29T10:08:31;97151.19;;;22.87;100.00
3812;BME280;1921;49.368;11.068;2023-07-29T10:11:02;97158.84;;;23.03;100.00
3812;BME280;1921;49.368;11.068;2023-07-29T10:13:28;97144.22;;;23.11;100.00
3812;BME280;1921;49.368;11.068;2023-07-29T10:15:54;97204.25;;;23.53;100.00
3812;BME280;1921;49.368;11.068;2023-07-29T10:18:23;97185.13;;;23.51;99.88
3812;BME280;1921;49.368;11.068;2023-07-29T10:20:51;97159.59;;;23.40;99.11
3812;BME280;1921;49.368;11.068;2023-07-29T10:23:18;97162.69;;;23.72;97.73
3812;BME280;1921;49.368;11.068;2023-07-29T10:25:53;97146.19;;;23.70;95.76
3812;BME280;1921;49.368;11.068;2023-07-29T10:28:26;97150.44;;;23.76;96.25
3812;BME280;1921;49.368;11.068;2023-07-29T10:30:54;97161.94;;;24.16;96.65
3812;BME280;1921;49.368;11.068;2023-07-29T10:33:21;97122.41;;;24.33;97.22
3812;BME280;1921;49.368;11.068;2023-07-29T10:35:47;97142.19;;;24.95;94.11
3812;BME280;1921;49.368;11.068;2023-07-29T10:38:13;97126.75;;;25.45;91.33
3812;BME280;1921;49.368;11.068;2023-07-29T10:40:52;97141.53;;;25.86;88.27
3812;BME280;1921;49.368;11.068;2023-07-29T10:43:33;97141.59;;;26.37;88.03
3812;BME280;1921;49.368;11.068;2023-07-29T10:48:56;97147.06;;;27.30;78.58
3812;BME280;1921;49.368;11.068;2023-07-29T10:51:38;97144.06;;;27.18;75.49
3812;BME280;1921;49.368;11.068;2023-07-29T10:54:14;97177.53;;;27.34;79.46
3812;BME280;1921;49.368;11.068;2023-07-29T10:56:49;97185.19;;;27.54;75.09
3812;BME280;1921;49.368;11.068;2023-07-29T11:01:57;97157.91;;;27.80;73.65
3812;BME280;1921;49.368;11.068;2023-07-29T11:04:28;97144.31;;;27.90;72.71
3812;BME280;1921;49.368;11.068;2023-07-29T11:10:01;97140.53;;;27.91;72.40
3812;BME280;1921;49.368;11.068;2023-07-29T11:12:46;97166.31;;;28.01;74.17
3812;BME280;1921;49.368;11.068;2023-07-29T11:15:27;97139.69;;;28.04;72.36
3812;BME280;1921;49.368;11.068;2023-07-29T11:17:58;97173.38;;;27.55;71.16
3812;BME280;1921;49.368;11.068;2023-07-29T11:20:29;97099.75;;;27.12;68.64
3812;BME280;1921;49.368;11.068;2023-07-29T11:23:05;97124.63;;;27.67;72.02
3812;BME280;1921;49.368;11.068;2023-07-29T11:25:31;97148.69;;;27.58;69.05
3812;BME280;1921;49.368;11.068;2023-07-29T11:28:00;97113.75;;;27.22;66.32
3812;BME280;1921;49.368;11.068;2023-07-29T11:30:26;97100.13;;;27.32;62.92
3812;BME280;1921;49.368;11.068;2023-07-29T11:32:53;97132.59;;;27.31;66.48
3812;BME280;1921;49.368;11.068;2023-07-29T11:35:20;97133.09;;;27.33;67.81
3812;BME280;1921;49.368;11.068;2023-07-29T11:37:49;97161.38;;;27.39;67.79
3812;BME280;1921;49.368;11.068;2023-07-29T11:40:24;97144.25;;;27.07;66.90
3812;BME280;1921;49.368;11.068;2023-07-29T11:42:52;97132.00;;;26.88;66.77
3812;BME280;1921;49.368;11.068;2023-07-29T11:45:19;97150.16;;;26.91;66.86
3812;BME280;1921;49.368;11.068;2023-07-29T11:47:46;97143.06;;;26.81;70.06
3812;BME280;1921;49.368;11.068;2023-07-29T11:50:14;97104.31;;;26.46;71.97
3812;BME280;1921;49.368;11.068;2023-07-29T11:52:44;97127.94;;;26.57;72.72
3812;BME280;1921;49.368;11.068;2023-07-29T11:55:13;97116.25;;;26.35;72.11
3812;BME280;1921;49.368;11.068;2023-07-29T11:57:40;97136.41;;;26.46;71.64
3812;BME280;1921;49.368;11.068;2023-07-29T12:00:09;97131.78;;;26.33;74.00
3812;BME280;1921;49.368;11.068;2023-07-29T12:02:39;97097.53;;;26.53;71.69
3812;BME280;1921;49.368;11.068;2023-07-29T12:05:06;97136.91;;;27.13;71.53
3812;BME280;1921;49.368;11.068;2023-07-29T12:07:32;97087.16;;;27.40;69.35
3812;BME280;1921;49.368;11.068;2023-07-29T12:10:03;97091.28;;;27.87;68.35
3812;BME280;1921;49.368;11.068;2023-07-29T12:12:29;97073.66;;;28.08;63.74
3812;BME280;1921;49.368;11.068;2023-07-29T12:14:55;97123.59;;;28.63;65.90
3812;BME280;1921;49.368;11.068;2023-07-29T12:17:21;97126.53;;;28.98;61.15
3812;BME280;1921;49.368;11.068;2023-07-29T12:19:47;97060.38;;;28.70;59.97
3812;BME280;1921;49.368;11.068;2023-07-29T12:22:19;97085.94;;;29.39;59.43
3812;BME280;1921;49.368;11.068;2023-07-29T12:24:45;97074.53;;;30.08;60.42
3812;BME280;1921;49.368;11.068;2023-07-29T12:27:13;97096.31;;;30.67;52.54
3812;BME280;1921;49.368;11.068;2023-07-29T12:29:43;97057.25;;;30.69;50.81
3812;BME280;1921;49.368;11.068;2023-07-29T12:32:10;97096.34;;;31.31;50.63
3812;BME280;1921;49.368;11.068;2023-07-29T12:34:38;97089.22;;;30.71;49.55
3812;BME280;1921;49.368;11.068;2023-07-29T12:37:06;97075.91;;;30.74;50.16
3812;BME280;1921;49.368;11.068;2023-07-29T12:39:34;97063.09;;;31.18;48.89
3812;BME280;1921;49.368;11.068;2023-07-29T12:42:02;97121.72;;;31.59;48.20
3812;BME280;1921;49.368;11.068;2023-07-29T12:44:34;97111.59;;;31.56;47.98
3812;BME280;1921;49.368;11.068;2023-07-29T12:47:02;97115.25;;;31.52;47.04
3812;BME280;1921;49.368;11.068;2023-07-29T12:49:29;97099.06;;;30.75;46.83
3812;BME280;1921;49.368;11.068;2023-07-29T12:51:59;97096.34;;;30.58;47.78
3812;BME280;1921;49.368;11.068;2023-07-29T12:54:25;97115.13;;;30.93;45.97
3812;BME280;1921;49.368;11.068;2023-07-29T12:56:51;97094.16;;;31.24;49.16
3812;BME280;1921;49.368;11.068;2023-07-29T12:59:17;97075.63;;;31.14;45.15
3812;BME280;1921;49.368;11.068;2023-07-29T13:01:42;97069.50;;;31.64;44.53
3812;BME280;1921;49.368;11.068;2023-07-29T13:04:10;97048.88;;;31.68;44.34
3812;BME280;1921;49.368;11.068;2023-07-29T13:06:36;97044.56;;;31.67;43.27
3812;BME280;1921;49.368;11.068;2023-07-29T13:09:02;97026.66;;;31.42;43.99
3812;BME280;1921;49.368;11.068;2023-07-29T13:11:28;97066.75;;;31.73;42.32
3812;BME280;1921;49.368;11.068;2023-07-29T13:13:54;97065.06;;;32.10;41.54
3812;BME280;1921;49.368;11.068;2023-07-29T13:16:20;97047.50;;;31.83;40.92
3812;BME280;1921;49.368;11.068;2023-07-29T13:18:46;96997.16;;;31.24;41.67